Time;durP1;ratioP1;P1;durP2;ratioP2;P2;SDS_P1;SDS_P2;PMS_P1;PMS_P2;Temp;Humidity;BMP_temperature;BMP_pressure;BME280_temperature;BME280_humidity;BME280_pressure;Samples;Min_cycle;Max_cycle;Signal;HPM_P1;HPM_P2
2021/06/12 00:01:11;;;;;;;10.90;8.65;;;;;;;18.70;68.03;100641.75;4962556;28;20043;-74
2021/06/12 00:03:37;;;;;;;10.75;8.30;;;;;;;18.69;67.83;100643.56;4964007;28;20039;-73
2021/06/12 00:06:03;;;;;;;9.15;8.20;;;;;;;18.64;68.06;100639.31;4960926;28;20039;-73
2021/06/12 00:08:29;;;;;;;11.30;7.47;;;;;;;18.60;67.98;100641.22;4963565;28;20094;-73
2021/06/12 00:10:54;;;;;;;8.85;7.82;;;;;;;18.55;68.67;100641.41;4962994;28;20432;-74
2021/06/12 00:13:20;;;;;;;11.57;10.10;;;;;;;18.43;69.64;100647.19;4961868;28;20043;-74
2021/06/12 00:15:45;;;;;;;9.45;8.45;;;;;;;18.37;69.35;100640.28;4963818;28;20042;-73
2021/06/12 00:18:10;;;;;;;9.48;8.50;;;;;;;18.35;68.79;100644.81;4961613;28;20031;-73
2021/06/12 00:20:37;;;;;;;9.60;7.75;;;;;;;18.32;68.89;100639.59;4962987;28;20070;-73
2021/06/12 00:23:04;;;;;;;11.10;6.43;;;;;;;18.32;68.50;100639.59;4963471;28;20042;-73
2021/06/12 00:25:30;;;;;;;8.82;7.93;;;;;;;18.29;68.88;100639.69;4960834;28;20423;-73
2021/06/12 00:27:57;;;;;;;9.55;8.02;;;;;;;18.22;69.41;100638.16;4963685;28;20081;-74
2021/06/12 00:30:23;;;;;;;9.50;8.30;;;;;;;18.20;69.53;100640.03;4962531;28;20027;-73
2021/06/12 00:32:48;;;;;;;10.82;8.35;;;;;;;18.22;69.73;100643.50;4944501;28;20565;-73
2021/06/12 00:35:14;;;;;;;10.32;8.95;;;;;;;18.25;69.99;100645.19;4963623;28;20038;-73
2021/06/12 00:37:40;;;;;;;10.10;9.05;;;;;;;18.28;69.99;100643.28;4944213;28;20102;-73
2021/06/12 00:40:10;;;;;;;10.93;9.50;;;;;;;18.29;70.03;100642.38;4962832;28;20045;-73
2021/06/12 00:42:37;;;;;;;9.55;8.55;;;;;;;18.30;69.97;100641.44;4964232;28;20070;-74
2021/06/12 00:45:05;;;;;;;8.98;8.07;;;;;;;18.32;69.55;100639.59;4961008;28;20039;-73
2021/06/12 00:47:30;;;;;;;8.45;7.55;;;;;;;18.36;69.39;100635.84;4966361;28;20041;-73
2021/06/12 00:49:56;;;;;;;9.13;8.00;;;;;;;18.41;69.29;100633.03;4966869;28;20038;-73
2021/06/12 00:52:21;;;;;;;9.98;7.70;;;;;;;18.38;69.61;100636.69;4944501;29;20452;-73
2021/06/12 00:54:46;;;;;;;9.57;8.55;;;;;;;18.31;70.04;100640.53;4967263;28;20077;-73
2021/06/12 00:57:13;;;;;;;10.68;8.50;;;;;;;18.23;70.56;100639.91;4965504;28;20039;-73
2021/06/12 00:59:38;;;;;;;9.80;8.77;;;;;;;18.17;70.87;100642.81;4948711;28;20045;-73
2021/06/12 01:02:04;;;;;;;11.18;9.98;;;;;;;18.25;71.24;100635.38;4967042;28;20418;-73
2021/06/12 01:04:30;;;;;;;10.60;9.43;;;;;;;18.31;70.77;100627.16;4964187;28;20028;-73
2021/06/12 01:06:55;;;;;;;10.88;9.23;;;;;;;18.33;70.69;100630.63;4961945;28;20542;-74
2021/06/12 01:09:22;;;;;;;10.45;9.20;;;;;;;18.29;70.62;100625.47;4965930;28;20122;-73
2021/06/12 01:12:11;;;;;;;9.30;8.38;;;;;;;18.22;71.03;100626.63;4965080;28;20046;-73
2021/06/12 01:14:42;;;;;;;9.50;8.20;;;;;;;18.18;70.43;100625.84;4965505;28;20057;-73
2021/06/12 01:17:24;;;;;;;8.85;7.95;;;;;;;18.07;71.16;100631.56;4961696;28;20068;-73
2021/06/12 01:20:02;;;;;;;9.65;8.75;;;;;;;18.02;71.43;100624.66;4964386;28;20047;-74
2021/06/12 01:22:42;;;;;;;11.32;10.07;;;;;;;18.04;71.66;100623.66;4965042;28;20039;-73
2021/06/12 01:25:17;;;;;;;13.63;9.63;;;;;;;18.07;71.96;100620.03;4965250;28;20248;-73
2021/06/12 01:28:18;;;;;;;11.75;9.70;;;;;;;18.04;72.24;100613.00;4944223;28;20142;-73
2021/06/12 01:30:45;;;;;;;11.15;9.40;;;;;;;18.10;71.13;100612.78;4940595;28;20427;-74
2021/06/12 01:33:12;;;;;;;11.15;8.85;;;;;;;18.14;71.14;100605.53;4964387;28;20039;-73
2021/06/12 01:35:41;;;;;;;9.02;8.05;;;;;;;18.14;71.23;100609.06;4963601;28;20050;-74
2021/06/12 01:38:11;;;;;;;9.88;8.88;;;;;;;18.14;71.42;100601.06;4965655;28;20513;-73
2021/06/12 01:40:40;;;;;;;10.40;9.32;;;;;;;18.17;71.53;100608.09;4949738;28;20038;-74
2021/06/12 01:43:09;;;;;;;11.85;9.65;;;;;;;18.20;71.25;100605.28;4961038;28;20031;-73
2021/06/12 01:45:35;;;;;;;9.95;9.02;;;;;;;18.18;71.26;100607.13;4964820;28;20034;-73
2021/06/12 01:48:01;;;;;;;9.00;8.10;;;;;;;18.20;71.24;100602.63;4966203;28;20062;-73
2021/06/12 01:50:27;;;;;;;9.77;8.77;;;;;;;18.29;71.32;100599.63;4963819;28;20638;-73
2021/06/12 01:52:55;;;;;;;10.38;9.32;;;;;;;18.35;70.99;100596.72;4966083;28;20118;-73
2021/06/12 01:55:24;;;;;;;10.63;9.02;;;;;;;18.36;71.11;100595.78;4963908;28;20455;-73
2021/06/12 01:57:50;;;;;;;10.35;9.25;;;;;;;18.37;71.03;100589.53;4963616;28;20480;-73
2021/06/12 02:00:16;;;;;;;10.93;8.82;;;;;;;18.34;71.04;100589.63;4966274;28;20090;-73
2021/06/12 02:02:43;;;;;;;9.00;8.10;;;;;;;18.33;70.99;100587.88;4964702;28;20046;-73
2021/06/12 02:05:14;;;;;;;10.18;8.65;;;;;;;18.26;71.46;100586.38;4946675;28;20046;-73
2021/06/12 02:07:40;;;;;;;10.63;9.10;;;;;;;18.19;71.61;100584.88;4959902;28;20071;-73
2021/06/12 02:10:07;;;;;;;11.43;10.27;;;;;;;18.19;71.51;100587.53;4965515;28;20479;-74
2021/06/12 02:12:34;;;;;;;11.10;9.98;;;;;;;18.21;71.69;100587.47;4948051;28;20043;-73
2021/06/12 02:15:01;;;;;;;10.70;9.60;;;;;;;18.20;71.67;100597.28;4962824;28;20039;-73
2021/06/12 02:17:30;;;;;;;10.00;8.32;;;;;;;18.30;71.81;100593.34;4965817;28;20039;-73
2021/06/12 02:19:57;;;;;;;9.80;8.23;;;;;;;18.38;71.10;100591.25;4965031;28;20057;-74
2021/06/12 02:22:23;;;;;;;9.27;7.00;;;;;;;18.45;71.07;100599.06;4963560;28;20498;-74
2021/06/12 02:24:49;;;;;;;9.55;8.55;;;;;;;18.47;70.96;100591.84;4965739;28;20081;-74
2021/06/12 02:27:18;;;;;;;12.25;9.38;;;;;;;18.51;71.43;100590.78;4963999;28;20550;-73
2021/06/12 02:29:45;;;;;;;10.10;8.48;;;;;;;18.54;71.14;100593.34;4963647;28;20074;-73
2021/06/12 02:32:13;;;;;;;10.75;9.65;;;;;;;18.50;71.78;100594.41;4965964;28;20026;-74
2021/06/12 02:34:39;;;;;;;8.73;7.80;;;;;;;18.48;71.02;100591.78;4963312;28;20487;-73
2021/06/12 02:37:06;;;;;;;10.98;8.35;;;;;;;18.42;71.35;100592.03;4964037;28;20077;-73
2021/06/12 02:39:32;;;;;;;9.88;8.85;;;;;;;18.32;72.00;100580.81;4963112;28;20526;-73
2021/06/12 02:41:58;;;;;;;9.27;8.38;;;;;;;18.30;71.82;100582.66;4965659;28;20038;-74
2021/06/12 02:44:24;;;;;;;8.88;7.97;;;;;;;18.28;72.04;100587.19;4963250;28;20502;-73
2021/06/12 02:46:50;;;;;;;10.73;9.25;;;;;;;18.27;72.29;100588.13;4964062;28;20042;-73
2021/06/12 02:49:19;;;;;;;12.10;9.90;;;;;;;18.31;72.24;100594.22;4965172;28;20081;-73
2021/06/12 02:51:51;;;;;;;14.02;9.05;;;;;;;18.32;72.50;100591.50;4959217;28;20035;-73
2021/06/12 02:54:20;;;;;;;9.35;8.38;;;;;;;18.31;72.64;100589.75;4963582;28;20598;-74
2021/06/12 02:56:47;;;;;;;8.90;7.93;;;;;;;18.33;71.91;100582.53;4948019;28;20046;-74
2021/06/12 02:59:16;;;;;;;10.40;9.27;;;;;;;18.31;73.03;100581.75;4962895;28;20050;-73
2021/06/12 03:01:43;;;;;;;13.35;11.60;;;;;;;18.29;72.95;100588.94;4963791;28;20177;-74
2021/06/12 03:04:14;;;;;;;10.20;9.20;;;;;;;18.28;72.32;100580.97;4965089;28;20050;-73
2021/06/12 03:06:42;;;;;;;8.80;7.88;;;;;;;18.29;72.12;100586.28;4962618;28;20066;-73
2021/06/12 03:09:13;;;;;;;9.63;8.70;;;;;;;18.30;72.47;100588.00;4963490;28;20035;-73
2021/06/12 03:11:39;;;;;;;10.48;9.43;;;;;;;18.27;72.10;100587.25;4965457;28;20407;-73
2021/06/12 03:14:04;;;;;;;11.18;8.50;;;;;;;18.18;72.68;100594.69;4945306;28;20047;-74
2021/06/12 03:16:30;;;;;;;11.55;10.45;;;;;;;18.16;72.70;100584.97;4963880;28;20054;-74
2021/06/12 03:18:58;;;;;;;10.00;8.43;;;;;;;18.19;73.05;100576.84;4964409;28;20173;-74
2021/06/12 03:21:25;;;;;;;10.73;9.57;;;;;;;18.19;73.01;100587.53;4962177;28;20035;-73
2021/06/12 03:23:52;;;;;;;11.52;8.85;;;;;;;18.18;72.89;100589.34;4959564;28;20411;-74
2021/06/12 03:26:20;;;;;;;8.82;7.97;;;;;;;18.25;73.03;100586.44;4957615;28;20086;-74
2021/06/12 03:28:46;;;;;;;9.15;7.85;;;;;;;18.30;73.04;100588.00;4963885;28;20035;-74
2021/06/12 03:31:12;;;;;;;11.00;9.82;;;;;;;18.33;72.97;100585.22;4961918;28;20503;-74
2021/06/12 03:33:37;;;;;;;14.50;10.60;;;;;;;18.33;73.14;100590.56;4963888;28;20046;-74
2021/06/12 03:36:06;;;;;;;11.05;9.25;;;;;;;18.37;72.95;100594.00;4963380;28;20026;-72
2021/06/12 03:38:34;;;;;;;11.07;9.98;;;;;;;18.40;73.21;100594.75;4961808;28;20175;-72
2021/06/12 03:41:01;;;;;;;15.20;11.18;;;;;;;18.48;73.00;100597.13;4964113;28;20046;-73
2021/06/12 03:43:27;;;;;;;15.35;11.15;;;;;;;18.57;72.71;100602.09;4964734;28;20039;-73
2021/06/12 03:45:56;;;;;;;13.00;10.18;;;;;;;18.65;72.53;100603.63;4939898;29;20554;-73
2021/06/12 03:48:22;;;;;;;11.82;10.48;;;;;;;18.67;72.31;100607.97;4960213;28;20035;-72
2021/06/12 03:50:50;;;;;;;13.27;11.93;;;;;;;18.65;72.71;100617.00;4962677;28;20054;-72
2021/06/12 03:53:16;;;;;;;13.00;11.63;;;;;;;18.66;72.57;100611.59;4962351;28;20036;-73
2021/06/12 03:55:42;;;;;;;12.88;11.32;;;;;;;18.70;72.37;100598.97;4964098;28;20042;-72
2021/06/12 03:58:07;;;;;;;16.92;15.32;;;;;;;18.73;72.68;100597.06;4958261;28;20142;-72
2021/06/12 04:00:34;;;;;;;13.82;12.43;;;;;;;18.78;72.68;100599.56;4962890;28;20035;-72
2021/06/12 04:02:59;;;;;;;13.52;12.02;;;;;;;18.79;72.69;100594.19;4963542;28;20471;-72
2021/06/12 04:05:24;;;;;;;13.10;11.80;;;;;;;18.85;72.29;100594.88;4956628;28;20097;-72
2021/06/12 04:07:50;;;;;;;13.88;12.45;;;;;;;18.86;72.66;100592.13;4964319;28;20070;-71
2021/06/12 04:10:15;;;;;;;11.52;10.32;;;;;;;18.89;72.56;100592.03;4944792;28;20045;-72
2021/06/12 04:12:40;;;;;;;12.38;11.10;;;;;;;18.87;72.72;100595.69;4960023;28;20152;-72
2021/06/12 04:15:07;;;;;;;15.45;11.20;;;;;;;18.96;71.70;100595.31;4956032;28;20039;-71
2021/06/12 04:17:32;;;;;;;13.05;10.07;;;;;;;18.96;72.30;100598.00;4960030;28;20082;-71
2021/06/12 04:19:57;;;;;;;16.00;12.40;;;;;;;19.00;71.88;100599.63;4946057;28;20035;-72
2021/06/12 04:22:23;;;;;;;12.93;11.57;;;;;;;19.01;72.43;100601.34;4961562;28;20038;-72
2021/06/12 04:24:48;;;;;;;13.45;12.05;;;;;;;19.07;72.21;100605.59;4944515;28;20451;-72
2021/06/12 04:27:14;;;;;;;14.60;12.35;;;;;;;19.14;71.94;100607.09;4964107;28;20495;-73
2021/06/12 04:29:39;;;;;;;12.30;11.05;;;;;;;19.24;72.09;100605.78;4957458;28;20086;-72
2021/06/12 04:32:05;;;;;;;12.43;9.68;;;;;;;19.38;71.89;100605.19;4963310;28;20541;-73
2021/06/12 04:34:30;;;;;;;13.65;10.95;;;;;;;19.43;71.38;100613.91;4962487;28;20114;-72
2021/06/12 04:36:55;;;;;;;15.23;10.63;;;;;;;19.46;71.41;100608.44;4961538;28;20069;-72
2021/06/12 04:39:21;;;;;;;14.52;11.73;;;;;;;19.49;71.23;100608.28;4963984;28;20062;-72
2021/06/12 04:41:46;;;;;;;13.00;11.57;;;;;;;19.57;71.63;100608.88;4961500;28;20062;-72
2021/06/12 04:44:12;;;;;;;14.02;12.65;;;;;;;19.66;71.52;100611.16;4961974;28;20050;-72
2021/06/12 04:46:39;;;;;;;14.50;13.00;;;;;;;19.76;71.01;100600.94;4960907;28;20039;-73
2021/06/12 04:49:05;;;;;;;11.20;9.88;;;;;;;19.96;70.00;100601.88;4963887;28;20093;-71
2021/06/12 04:51:30;;;;;;;13.27;12.00;;;;;;;20.06;69.90;100603.22;4961187;28;20511;-71
2021/06/12 04:53:56;;;;;;;11.85;10.45;;;;;;;20.16;70.04;100598.31;4962775;28;20118;-71
2021/06/12 04:56:21;;;;;;;14.15;12.75;;;;;;;20.23;69.60;100599.81;4962669;28;20495;-72
2021/06/12 04:58:46;;;;;;;16.67;14.50;;;;;;;20.26;69.46;100605.00;4961095;28;20496;-72
2021/06/12 05:01:12;;;;;;;16.88;15.18;;;;;;;20.27;69.60;100615.66;4956394;28;20049;-72
2021/06/12 05:03:37;;;;;;;14.77;13.30;;;;;;;20.27;69.63;100601.38;4945482;28;20126;-72
2021/06/12 05:06:03;;;;;;;13.20;11.85;;;;;;;20.31;69.72;100598.50;4961925;28;20119;-72
2021/06/12 05:08:29;;;;;;;13.75;11.70;;;;;;;20.32;69.99;100594.00;4940884;29;20044;-72
2021/06/12 05:10:54;;;;;;;14.98;13.32;;;;;;;20.41;69.66;100590.91;4963312;28;20035;-72
2021/06/12 05:13:19;;;;;;;11.95;10.75;;;;;;;20.47;69.45;100589.75;4961210;28;20091;-72
2021/06/12 05:15:46;;;;;;;15.05;13.18;;;;;;;20.58;69.52;100600.88;4962361;28;20041;-72
2021/06/12 05:18:13;;;;;;;11.48;10.38;;;;;;;20.66;69.24;100597.84;4962935;28;20042;-72
2021/06/12 05:20:38;;;;;;;13.68;9.75;;;;;;;20.85;68.61;100595.16;4960623;28;20039;-72
2021/06/12 05:23:05;;;;;;;13.45;12.02;;;;;;;20.88;68.69;100595.91;4963298;28;20122;-72
2021/06/12 05:25:31;;;;;;;11.00;8.95;;;;;;;21.00;68.55;100592.59;4961628;28;20514;-72
2021/06/12 05:27:57;;;;;;;15.15;13.05;;;;;;;21.11;67.82;100588.53;4961333;28;20035;-72
2021/06/12 05:30:23;;;;;;;16.00;12.05;;;;;;;21.20;68.12;100593.47;4966251;28;20418;-72
2021/06/12 05:32:48;;;;;;;11.65;9.50;;;;;;;21.37;67.34;100584.56;4947136;28;20488;-72
2021/06/12 05:35:14;;;;;;;14.10;12.63;;;;;;;21.51;66.60;100586.56;4962388;28;20039;-72
2021/06/12 05:37:40;;;;;;;13.30;11.95;;;;;;;21.63;65.79;100583.25;4969232;28;20023;-72
2021/06/12 05:40:07;;;;;;;17.65;13.15;;;;;;;21.81;65.92;100585.00;4963061;28;20042;-72
2021/06/12 05:42:32;;;;;;;10.52;9.43;;;;;;;21.95;64.92;100583.41;4960691;28;20411;-72
2021/06/12 05:44:58;;;;;;;9.63;8.73;;;;;;;21.93;64.39;100578.13;4965410;28;20031;-71
2021/06/12 05:47:23;;;;;;;13.13;10.60;;;;;;;22.02;64.75;100568.72;4967130;28;20519;-72
2021/06/12 05:49:48;;;;;;;13.02;10.68;;;;;;;22.16;64.27;100567.97;4966711;28;20046;-71
2021/06/12 05:52:14;;;;;;;11.48;9.32;;;;;;;22.28;63.66;100561.97;4967171;28;20043;-75
2021/06/12 05:54:39;;;;;;;12.75;11.25;;;;;;;22.39;63.65;100558.69;4963832;28;20039;-73
2021/06/12 05:57:05;;;;;;;12.00;10.75;;;;;;;22.47;62.52;100561.81;4964913;28;20066;-73
2021/06/12 05:59:31;;;;;;;13.68;11.90;;;;;;;22.36;62.79;100562.41;4965821;28;20035;-73
2021/06/12 06:01:56;;;;;;;14.73;11.13;;;;;;;22.49;62.43;100565.28;4954212;28;20039;-74
2021/06/12 06:04:21;;;;;;;10.52;9.52;;;;;;;22.57;61.58;100573.81;4939185;28;20039;-73
2021/06/12 06:06:47;;;;;;;10.60;8.13;;;;;;;22.39;61.72;100553.31;4965072;28;20121;-73
2021/06/12 06:09:13;;;;;;;9.20;8.30;;;;;;;22.44;61.86;100568.22;4965336;28;20074;-71
2021/06/12 06:11:39;;;;;;;14.43;8.45;;;;;;;22.43;62.77;100574.56;4963558;28;20106;-71
2021/06/12 06:14:04;;;;;;;10.43;7.85;;;;;;;22.61;62.70;100583.47;4955147;28;20447;-71
2021/06/12 06:16:29;;;;;;;9.00;8.10;;;;;;;22.64;62.76;100577.03;4964290;28;20031;-71
2021/06/12 06:18:55;;;;;;;9.88;7.18;;;;;;;22.60;62.03;100567.38;4962778;28;20035;-71
2021/06/12 06:21:20;;;;;;;10.13;8.68;;;;;;;22.68;61.50;100566.00;4963358;28;20521;-71
2021/06/12 06:23:46;;;;;;;9.38;8.13;;;;;;;22.65;62.00;100565.31;4962775;28;20019;-71
2021/06/12 06:26:12;;;;;;;9.75;8.15;;;;;;;22.66;62.97;100565.25;4956499;28;20031;-72
2021/06/12 06:28:37;;;;;;;15.68;7.03;;;;;;;22.70;62.44;100558.72;4960971;28;20101;-71
2021/06/12 06:31:02;;;;;;;8.77;7.85;;;;;;;22.94;61.52;100555.59;4963447;28;20047;-71
2021/06/12 06:33:28;;;;;;;8.57;7.70;;;;;;;22.90;61.31;100564.81;4965827;28;20027;-71
2021/06/12 06:35:53;;;;;;;11.07;7.50;;;;;;;23.07;61.11;100567.41;4961480;28;20574;-71
2021/06/12 06:38:19;;;;;;;9.85;8.82;;;;;;;23.15;60.99;100569.66;4932658;28;20590;-71
2021/06/12 06:40:44;;;;;;;11.10;7.70;;;;;;;23.24;61.14;100570.94;4963302;28;20093;-70
2021/06/12 06:43:12;;;;;;;9.10;7.88;;;;;;;23.21;60.71;100572.00;4965347;28;20043;-71
2021/06/12 06:45:41;;;;;;;12.40;10.13;;;;;;;23.18;60.39;100566.78;4962509;28;20028;-71
2021/06/12 06:48:08;;;;;;;11.50;9.27;;;;;;;23.17;60.43;100568.63;4964238;28;20105;-71
2021/06/12 06:50:33;;;;;;;10.15;7.07;;;;;;;23.27;60.73;100573.50;4965169;28;20030;-72
2021/06/12 06:52:59;;;;;;;10.07;6.32;;;;;;;23.27;59.38;100574.34;4942349;28;20522;-71
2021/06/12 06:55:25;;;;;;;7.68;5.50;;;;;;;23.34;59.19;100573.03;4964798;28;20500;-71
2021/06/12 06:57:50;;;;;;;12.25;7.38;;;;;;;23.43;57.97;100573.44;4962192;28;20118;-72
2021/06/12 07:00:16;;;;;;;8.48;7.05;;;;;;;23.44;58.00;100578.72;4958566;28;20283;-70
2021/06/12 07:02:41;;;;;;;8.00;6.47;;;;;;;23.39;57.97;100572.75;4964930;28;20110;-71
2021/06/12 07:05:07;;;;;;;8.85;6.63;;;;;;;23.49;57.86;100563.16;4961951;28;20085;-71
2021/06/12 07:07:32;;;;;;;8.60;7.50;;;;;;;23.58;57.31;100572.53;4964415;28;20122;-71
2021/06/12 07:09:57;;;;;;;10.40;7.30;;;;;;;23.57;57.29;100570.78;4964001;28;20042;-71
2021/06/12 07:12:23;;;;;;;8.93;7.60;;;;;;;23.49;57.06;100570.38;4962754;28;20047;-71
2021/06/12 07:14:48;;;;;;;8.88;7.97;;;;;;;23.52;56.91;100557.59;4964804;28;20046;-70
2021/06/12 07:17:13;;;;;;;10.60;7.53;;;;;;;23.48;57.10;100558.75;4945215;28;20086;-71
2021/06/12 07:19:39;;;;;;;12.88;8.23;;;;;;;23.63;57.91;100555.16;4963909;28;20047;-71
2021/06/12 07:22:04;;;;;;;9.75;7.68;;;;;;;23.61;56.53;100562.44;4964045;28;20042;-71
2021/06/12 07:24:31;;;;;;;10.25;7.68;;;;;;;23.57;56.72;100560.00;4961930;28;20083;-71
2021/06/12 07:26:56;;;;;;;8.80;7.10;;;;;;;23.61;56.74;100559.75;4961756;28;20043;-72
2021/06/12 07:29:22;;;;;;;9.68;6.20;;;;;;;23.72;57.38;100569.03;4963198;28;20118;-71
2021/06/12 07:31:47;;;;;;;10.05;7.07;;;;;;;23.85;56.71;100572.72;4963490;28;20051;-71
2021/06/12 07:34:13;;;;;;;8.57;7.57;;;;;;;23.88;55.97;100569.84;4960125;28;20035;-71
2021/06/12 07:36:38;;;;;;;8.45;7.50;;;;;;;23.78;56.38;100571.38;4959181;28;20037;-71
2021/06/12 07:39:05;;;;;;;11.25;7.45;;;;;;;23.68;56.22;100556.69;4962195;28;20091;-71
2021/06/12 07:41:32;;;;;;;9.82;6.72;;;;;;;23.57;56.79;100555.50;4963100;28;20065;-72
2021/06/12 07:43:57;;;;;;;9.65;7.82;;;;;;;23.37;57.34;100569.28;4947014;28;20417;-70
2021/06/12 07:46:23;;;;;;;9.00;7.20;;;;;;;23.31;57.51;100564.25;4961050;28;20126;-70
2021/06/12 07:48:48;;;;;;;8.18;7.20;;;;;;;23.46;58.20;100557.97;4964084;28;20034;-71
2021/06/12 07:51:14;;;;;;;7.93;7.13;;;;;;;23.45;57.87;100556.25;4962959;28;20031;-71
2021/06/12 07:53:39;;;;;;;9.52;7.07;;;;;;;23.47;57.46;100546.22;4961408;28;20119;-71
2021/06/12 07:56:05;;;;;;;9.45;7.60;;;;;;;23.40;57.40;100537.66;4964078;28;20446;-71
2021/06/12 07:58:30;;;;;;;8.43;7.28;;;;;;;23.56;57.67;100543.00;4961786;28;20410;-71
2021/06/12 08:00:56;;;;;;;8.77;7.57;;;;;;;23.62;57.38;100542.63;4946130;28;20034;-71
2021/06/12 08:03:21;;;;;;;11.30;7.38;;;;;;;23.76;56.42;100547.22;4963265;28;20030;-71
2021/06/12 08:05:46;;;;;;;9.63;7.13;;;;;;;23.83;56.61;100540.47;4961390;28;20043;-71
2021/06/12 08:08:12;;;;;;;9.77;7.20;;;;;;;23.75;56.75;100540.06;4961763;28;20081;-71
2021/06/12 08:10:37;;;;;;;10.32;7.68;;;;;;;23.85;56.69;100537.69;4961931;28;20118;-70
2021/06/12 08:13:03;;;;;;;11.70;7.47;;;;;;;24.00;56.01;100541.28;4962875;28;20454;-71
2021/06/12 08:15:28;;;;;;;7.95;6.72;;;;;;;24.08;54.92;100543.47;4963058;28;20039;-71
2021/06/12 08:17:53;;;;;;;9.45;7.75;;;;;;;24.13;55.42;100541.34;4961329;28;20119;-70
2021/06/12 08:20:19;;;;;;;9.13;7.00;;;;;;;24.24;55.32;100549.66;4964049;28;20045;-71
2021/06/12 08:22:45;;;;;;;8.68;6.93;;;;;;;24.35;54.47;100533.66;4962336;28;20039;-71
2021/06/12 08:25:10;;;;;;;7.75;6.70;;;;;;;24.41;54.31;100524.31;4961899;28;20043;-69
2021/06/12 08:27:37;;;;;;;8.90;7.80;;;;;;;24.58;53.90;100523.28;4963868;28;20042;-68
2021/06/12 08:30:07;;;;;;;10.00;7.28;;;;;;;24.64;54.25;100525.56;4960957;28;20090;-69
2021/06/12 08:32:32;;;;;;;9.02;7.25;;;;;;;24.69;54.10;100523.44;4945566;28;20470;-68
2021/06/12 08:34:58;;;;;;;9.95;6.80;;;;;;;24.65;54.32;100519.19;4959107;28;20043;-69
2021/06/12 08:37:23;;;;;;;8.70;6.72;;;;;;;24.77;53.88;100518.41;4961073;28;20035;-69
2021/06/12 08:39:50;;;;;;;7.50;6.20;;;;;;;24.89;53.68;100522.13;4963810;28;20034;-69
2021/06/12 08:42:16;;;;;;;7.20;6.28;;;;;;;25.13;53.15;100531.28;4962146;28;20043;-69
2021/06/12 08:44:44;;;;;;;8.18;6.13;;;;;;;25.19;52.96;100512.97;4960677;28;20039;-69
2021/06/12 08:47:10;;;;;;;8.35;6.35;;;;;;;25.38;52.50;100513.44;4958648;28;20526;-69
2021/06/12 08:49:37;;;;;;;6.85;6.15;;;;;;;25.81;51.81;100518.59;4958901;28;20046;-69
2021/06/12 08:52:02;;;;;;;7.53;6.45;;;;;;;25.86;50.81;100510.19;4958322;28;20031;-69
2021/06/12 08:54:27;;;;;;;9.20;6.05;;;;;;;25.84;50.03;100513.00;4961949;28;20494;-69
2021/06/12 08:56:53;;;;;;;8.50;7.22;;;;;;;25.62;49.94;100505.47;4960451;28;20468;-69
2021/06/12 08:59:19;;;;;;;8.93;6.20;;;;;;;25.61;50.79;100511.88;4963514;28;20410;-68
2021/06/12 09:01:45;;;;;;;9.88;7.03;;;;;;;25.46;50.99;100504.81;4962062;28;20546;-69
2021/06/12 09:04:24;;;;;;;8.88;6.80;;;;;;;25.53;50.62;100511.53;4962599;28;20053;-69
2021/06/12 09:07:12;;;;;;;7.07;6.28;;;;;;;25.77;50.44;100501.72;4933874;28;20440;-69
2021/06/12 09:09:41;;;;;;;7.55;6.00;;;;;;;26.04;47.61;100489.94;4963177;28;20035;-69
2021/06/12 09:12:07;;;;;;;5.82;5.00;;;;;;;26.14;47.71;100499.13;4965145;28;20075;-69
2021/06/12 09:14:32;;;;;;;8.52;5.78;;;;;;;26.35;47.71;100501.25;4967086;28;20073;-69
2021/06/12 09:16:58;;;;;;;9.00;6.07;;;;;;;26.27;46.91;100498.25;4964997;28;20046;-69
2021/06/12 09:19:23;;;;;;;6.95;5.78;;;;;;;25.99;48.00;100511.03;4966020;28;20030;-69
2021/06/12 09:21:57;;;;;;;10.68;5.72;;;;;;;25.86;48.58;100500.25;4966563;28;20058;-69
2021/06/12 09:24:45;;;;;;;7.82;4.90;;;;;;;25.76;48.42;100486.47;4961078;28;20035;-69
2021/06/12 09:27:17;;;;;;;6.38;5.05;;;;;;;25.61;48.10;100498.34;4961640;28;20051;-69
2021/06/12 09:29:45;;;;;;;7.47;5.88;;;;;;;25.39;48.44;100487.28;4964949;28;20553;-69
2021/06/12 09:32:13;;;;;;;9.10;4.97;;;;;;;25.88;47.58;100492.88;4967137;28;20109;-69
2021/06/12 09:34:39;;;;;;;6.47;4.93;;;;;;;26.22;46.58;100496.72;4964416;28;20038;-69
2021/06/12 09:37:20;;;;;;;7.97;5.78;;;;;;;26.13;46.36;100492.00;4965693;28;20027;-69
2021/06/12 09:40:13;;;;;;;7.47;4.63;;;;;;;26.53;45.78;100490.97;4962147;28;20035;-69
2021/06/12 09:42:49;;;;;;;7.00;5.53;;;;;;;26.81;45.77;100487.94;4956080;28;20457;-69
2021/06/12 09:45:28;;;;;;;4.75;4.22;;;;;;;26.85;46.63;100489.47;5029580;23;20050;-73
2021/06/12 09:48:26;;;;;;;7.55;4.47;;;;;;;26.96;46.45;100475.13;4994527;28;20046;-73
2021/06/12 09:51:11;;;;;;;6.15;4.45;;;;;;;26.95;43.13;100478.78;4940745;28;20100;-73
2021/06/12 09:53:52;;;;;;;12.02;4.50;;;;;;;26.69;43.61;100498.81;4994429;28;20046;-73
2021/06/12 09:56:18;;;;;;;10.18;5.00;;;;;;;25.98;44.46;100484.97;4938691;28;20055;-73
2021/06/12 09:58:43;;;;;;;5.38;4.22;;;;;;;25.29;46.08;100474.44;4965480;28;20118;-73
2021/06/12 10:01:11;;;;;;;6.10;4.35;;;;;;;25.16;47.14;100483.50;4965138;28;20039;-72
2021/06/12 10:03:36;;;;;;;5.47;4.22;;;;;;;25.12;47.25;100493.56;4961571;28;20043;-73
2021/06/12 10:06:20;;;;;;;7.43;4.72;;;;;;;24.92;47.21;100492.22;4965395;28;20054;-73
2021/06/12 10:08:49;;;;;;;7.72;4.88;;;;;;;24.83;47.96;100485.59;4964616;28;20047;-73
2021/06/12 10:11:19;;;;;;;5.32;4.50;;;;;;;24.76;48.39;100478.88;4964775;28;20038;-73
2021/06/12 10:13:46;;;;;;;6.10;4.47;;;;;;;24.70;48.83;100474.75;4966191;28;20043;-73
2021/06/12 10:16:12;;;;;;;6.07;4.00;;;;;;;24.66;48.99;100488.56;4962106;28;20488;-73
2021/06/12 10:18:43;;;;;;;6.82;4.70;;;;;;;24.48;49.52;100488.78;4949388;28;20134;-73
2021/06/12 10:21:13;;;;;;;5.30;4.20;;;;;;;24.62;48.75;100476.22;4963846;28;20086;-73
2021/06/12 10:23:40;;;;;;;6.72;4.32;;;;;;;25.05;48.10;100476.09;4965084;28;20490;-73
2021/06/12 10:26:06;;;;;;;5.75;4.25;;;;;;;25.63;47.06;100461.28;4963512;28;20046;-73
2021/06/12 10:28:32;;;;;;;4.88;4.22;;;;;;;26.09;45.59;100463.44;4946686;28;20030;-73
2021/06/12 10:31:04;;;;;;;5.40;4.18;;;;;;;26.30;46.18;100450.19;4960638;28;20173;-73
2021/06/12 10:33:31;;;;;;;7.47;5.10;;;;;;;26.24;46.19;100445.25;4962780;28;20051;-73
2021/06/12 10:36:15;;;;;;;7.47;5.03;;;;;;;25.89;46.68;100447.81;4948428;28;20039;-73
2021/06/12 10:38:41;;;;;;;6.13;4.35;;;;;;;25.68;47.82;100448.31;4965867;28;20617;-73
2021/06/12 10:41:18;;;;;;;5.88;4.40;;;;;;;25.35;48.51;100449.69;4962931;28;20122;-73
2021/06/12 10:43:44;;;;;;;6.18;5.00;;;;;;;25.01;49.17;100442.16;4961538;28;20042;-73
2021/06/12 10:46:09;;;;;;;5.55;4.25;;;;;;;24.67;48.74;100442.56;4959902;28;20031;-73
2021/06/12 10:48:50;;;;;;;6.57;4.47;;;;;;;24.35;52.38;100444.66;4963974;28;20119;-73
2021/06/12 10:51:24;;;;;;;5.15;3.67;;;;;;;23.35;53.34;100453.59;4959379;28;20043;-72
2021/06/12 10:54:18;;;;;;;10.55;5.78;;;;;;;21.54;65.97;100508.56;4947079;28;20093;-73
2021/06/12 10:56:46;;;;;;;11.32;10.13;;;;;;;20.64;71.94;100481.75;4945989;28;20035;-73
2021/06/12 10:59:15;;;;;;;10.93;8.98;;;;;;;20.08;73.93;100478.97;4963507;28;20515;-73
2021/06/12 11:01:59;;;;;;;13.85;9.52;;;;;;;19.86;77.51;100483.59;4948164;28;20510;-74
2021/06/12 11:04:53;;;;;;;12.48;10.02;;;;;;;19.83;76.67;100495.31;4964048;28;20039;-73
2021/06/12 11:07:27;;;;;;;16.52;12.13;;;;;;;19.76;77.76;100498.34;4962769;28;20570;-73
2021/06/12 11:10:11;;;;;;;14.23;11.18;;;;;;;19.61;79.15;100490.00;4946926;28;20118;-74
2021/06/12 11:12:43;;;;;;;14.05;12.18;;;;;;;19.53;80.32;100516.22;4968446;28;20050;-75
2021/06/12 11:15:10;;;;;;;14.02;12.48;;;;;;;19.36;80.52;100546.41;4970455;28;20047;-74
2021/06/12 11:17:41;;;;;;;15.45;12.98;;;;;;;19.20;81.79;100532.81;4967121;28;20558;-74
2021/06/12 11:20:06;;;;;;;17.35;13.73;;;;;;;19.25;81.81;100517.41;4950077;28;20450;-73
2021/06/12 11:22:38;;;;;;;12.63;11.45;;;;;;;19.43;81.96;100514.88;4963612;28;20035;-74